Startpagina
METAR-TAF:

METAR-TAF

Vliegvelden :

Québec, Québec, Canada

breedte: 46-48N, lengte: 071-23W, hoogte: 70 m

Actueel weer

Dit bericht is 10 minuten geleden gemaakt, om 15:00 UTC
Wind 9 kt uit het oosten
Temperatuur 21°C
Vochtigheid 64%
Druk 1020 hPa
Zicht: 48.3 km
Weinig wolken op 3000 ft
Verspreide wolken op 22000 ft

METAR: CYQB 191500Z 08009KT 30SM FEW030 SCT220 21/14 A3013 RMK SC1CI4 SC TR SLP205 DENSITY ALT 800FT

Tijdstip: 11:10 (15:10 UTC)

Verwachting

Dit bericht is 3 uur en het 32 minuten geleden gemaakt, om 11:38 UTC
Verwachting geldig van 19 om 12 UTC tot 20 om 12 UTC
Wind 8 kt uit het oostnoordoosten
Zicht: 10 km
Weinig wolken op 4000 ft
Wijzigt naar
van 20 om 00 UTC tot 20 om 02 UTC
Wind 5 kt uit het noordoosten

TAF: CYQB 191138Z 1912/2012 07008KT P6SM FEW040 BECMG 2000/2002 04005KT RMK NXT FCST BY 191800Z

Waarnemingen en weersverwachtingen van meer dan 4000 vliegvelden (METAR en TAF).

De beschikbare stations zijn de gele en rode punten op de kaart.

Ga met uw muis naar het station om de naam te zien.

Klik dan om waarnemingen en weersverwachtingen te zien.

kaart wijzigen: klik op de groene knoppen met een zwart kruis om in te zoomen, op de groene knop met een streepje om uit te zoomen of op de groene pijlen voor aangrenzende kaarten.


METAR-TAF: